23°C Temp
15°C Dewpoint
61% Humidity
Temperature
16 KM/H
10 MPH
9 KTS
150°
South South
East

Wind Speed
Clear
Conditions
Pressure 1013.92 (hPa) - 29.94 (in)
Visibility 6.2 (mi) - 10.0 (km)

Current Conditions
EGLL
Location 21(mi)
Metar :EGLL 181120Z AUTO 15009KT 9999 NCD 23/15 Q1014
Sat 18th September 11:20 am

Airport
  Metar Aviation API Data Provided by https://www.checkwx.com/ PHP scripts by weather34.com ©2021